Cenka — TCTG5 — position and weather

sailwx.info

Track history (hours):
 
Tides and Currents Weather Stations Pressure Air Temp Water Temp Dewpoint Dewpoint Depression Visibility Wind Speed Wind Dir Waves Ship Positions

Cenka

Last reported at 2018-Apr-19 21:05 UTC. Time now 2018-Apr-19 21:34 UTC.
Position N 46°21' E 030°39'.

Length 150 m; draft 4.9 m.

Type: Passenger vessel. MMSI: 271002610.

Date/timePositionNaut miles runAvg speedWind from/ knotsBaromVisibWave heightAir tempDewpointWater temp
2018-Apr-19 21:05N 46°21' E 030°39'0 0.1
2018-Apr-19 21:01N 46°21' E 030°39'0 0.0
2018-Apr-19 20:05N 46°21' E 030°39'0 0.1
2018-Apr-19 20:00N 46°21' E 030°39'3 3.2
2018-Apr-19 19:05N 46°19' E 030°42'0 6.0
2018-Apr-19 19:00N 46°18' E 030°43'1010.4
2018-Apr-19 18:04N 46°09' E 030°46'112.9
2018-Apr-19 18:00N 46°08' E 030°46'  
2018-Apr-15 05:05N 46°09' E 030°49'112.5
2018-Apr-15 04:59N 46°10' E 030°48'1011.0
2018-Apr-15 04:04N 46°19' E 030°41'1 8.3
2018-Apr-15 04:00N 46°19' E 030°40'2 0.1
2018-Apr-14 13:04N 46°21' E 030°39'0 0.0
2018-Apr-14 12:57N 46°21' E 030°39'0 0.0
2018-Apr-14 12:05N 46°21' E 030°39'0 0.0
2018-Apr-14 12:00N 46°21' E 030°39'0 0.4
2018-Apr-14 10:57N 46°20' E 030°39'5 5.3
2018-Apr-14 10:04N 46°17' E 030°44'1 5.0
2018-Apr-14 09:58N 46°17' E 030°44'0 0.1
2018-Apr-14 09:05N 46°17' E 030°44'0 0.1
2018-Apr-14 09:00N 46°17' E 030°44'0 0.0
2018-Apr-14 08:05N 46°16' E 030°44'0 0.0
2018-Apr-14 08:00N 46°16' E 030°44'0 0.0
2018-Apr-14 07:05N 46°16' E 030°44'0 0.2
2018-Apr-14 07:01N 46°17' E 030°44'0 0.0
2018-Apr-14 06:24N 46°16' E 030°44'0 0.0
2018-Apr-14 06:01N 46°16' E 030°44'0 0.0
2018-Apr-14 05:20N 46°17' E 030°44'0 0.0
2018-Apr-14 05:01N 46°17' E 030°44'0 0.0
2018-Apr-14 04:25N 46°17' E 030°44'0 0.0
2018-Apr-14 04:00N 46°17' E 030°44'0 0.0
2018-Apr-14 03:04N 46°17' E 030°44'0 0.0
2018-Apr-14 03:00N 46°17' E 030°44'0 0.0
2018-Apr-14 02:01N 46°17' E 030°44'0 0.0
2018-Apr-14 01:59N 46°17' E 030°44'0 0.0
2018-Apr-14 01:04N 46°17' E 030°44'0 0.0
2018-Apr-14 01:00N 46°17' E 030°44'0 0.0
2018-Apr-14 00:02N 46°17' E 030°44'0 0.0
2018-Apr-13 23:57N 46°17' E 030°44'0 0.0
2018-Apr-13 22:55N 46°17' E 030°44'0 0.0
2018-Apr-13 22:05N 46°17' E 030°44'0 0.1
2018-Apr-13 22:01N 46°17' E 030°44'0 0.0
2018-Apr-13 21:05N 46°17' E 030°44'0 0.1
2018-Apr-13 21:00N 46°17' E 030°44'0 0.0
2018-Apr-13 19:59N 46°17' E 030°44'1 1.5
2018-Apr-13 19:05N 46°16' E 030°46'110.9
2018-Apr-13 19:00N 46°15' E 030°46'2812.7
2018-Apr-13 16:46N 45°47' E 030°55'  
2018-Apr-11 08:08N 45°59' E 030°51'213.6
2018-Apr-11 08:01N 46°00' E 030°51'713.4
2018-Apr-11 07:30N 46°07' E 030°49'713.2
2018-Apr-11 06:57N 46°14' E 030°46'8 9.4
2018-Apr-11 06:08N 46°20' E 030°39'0 3.3
2018-Apr-11 05:59N 46°21' E 030°39'0 0.0
2018-Apr-11 05:19N 46°21' E 030°39'0 0.0
2018-Apr-11 04:59N 46°21' E 030°39'0 0.0
2018-Apr-11 04:30N 46°21' E 030°39'0 0.0
2018-Apr-11 04:00N 46°21' E 030°39'0 0.0
2018-Apr-11 01:55N 46°21' E 030°39'0 0.0
2018-Apr-11 01:30N 46°21' E 030°39'0 0.0
2018-Apr-11 00:56N 46°21' E 030°39'0 0.0
2018-Apr-10 23:58N 46°21' E 030°39'0 0.0
2018-Apr-10 22:58N 46°21' E 030°39'0 0.0
2018-Apr-10 21:59N 46°21' E 030°39'0 0.0
2018-Apr-10 20:52N 46°21' E 030°39'0 0.0
2018-Apr-10 19:55N 46°21' E 030°39'0 0.0
2018-Apr-10 17:56N 46°21' E 030°39'0 0.0
2018-Apr-10 16:57N 46°21' E 030°39'0 0.0
2018-Apr-10 15:59N 46°21' E 030°39'0 0.0
2018-Apr-10 14:59N 46°21' E 030°39'0 0.0
2018-Apr-10 13:59N 46°21' E 030°39'0 0.0
2018-Apr-10 12:59N 46°21' E 030°39'0 0.0
2018-Apr-10 11:56N 46°21' E 030°39'0 0.0
2018-Apr-10 10:59N 46°21' E 030°39'0 0.0
2018-Apr-10 10:30N 46°21' E 030°39'0 0.8
2018-Apr-10 09:59N 46°20' E 030°39'3 6.2
2018-Apr-10 09:30N 46°18' E 030°43'3 5.2
2018-Apr-10 08:59N 46°16' E 030°45'0 0.0
2018-Apr-10 08:30N 46°16' E 030°45'0 0.0
2018-Apr-10 07:59N 46°16' E 030°45'0 0.0
2018-Apr-10 07:30N 46°16' E 030°45'0 0.0
2018-Apr-10 06:59N 46°16' E 030°45'0 0.0
2018-Apr-10 06:30N 46°16' E 030°45'0 0.4
2018-Apr-10 05:59N 46°16' E 030°45'1110.6
2018-Apr-10 04:59N 46°06' E 030°50'713.0
2018-Apr-10 04:26N 45°59' E 030°52'613.0
2018-Apr-10 03:58N 45°53' E 030°54'1913.2
2018-Apr-10 02:30N 45°34' E 030°60'613.2
2018-Apr-10 02:00N 45°28' E 031°02'713.2
2018-Apr-10 01:30N 45°21' E 031°04'  
Track history (hours):
 
Tides and Currents Weather Stations Pressure Air Temp Water Temp Dewpoint Dewpoint Depression Visibility Wind Speed Wind Dir Waves Ship Positions

Cenka

Last reported at 2018-Apr-19 21:05 UTC. Time now 2018-Apr-19 21:34 UTC.
Position N 46°21' E 030°39'.

Length 150 m; draft 4.9 m.

Type: Passenger vessel. MMSI: 271002610.

Date/timePositionNaut miles runAvg speedWind from/ knotsBaromVisibWave heightAir tempDewpointWater temp
2018-Apr-19 21:05N 46°21' E 030°39'0 0.1
2018-Apr-19 21:01N 46°21' E 030°39'0 0.0
2018-Apr-19 20:05N 46°21' E 030°39'0 0.1
2018-Apr-19 20:00N 46°21' E 030°39'3 3.2
2018-Apr-19 19:05N 46°19' E 030°42'0 6.0
2018-Apr-19 19:00N 46°18' E 030°43'1010.4
2018-Apr-19 18:04N 46°09' E 030°46'112.9
2018-Apr-19 18:00N 46°08' E 030°46'  
2018-Apr-15 05:05N 46°09' E 030°49'112.5
2018-Apr-15 04:59N 46°10' E 030°48'1011.0
2018-Apr-15 04:04N 46°19' E 030°41'1 8.3
2018-Apr-15 04:00N 46°19' E 030°40'2 0.1
2018-Apr-14 13:04N 46°21' E 030°39'0 0.0
2018-Apr-14 12:57N 46°21' E 030°39'0 0.0
2018-Apr-14 12:05N 46°21' E 030°39'0 0.0
2018-Apr-14 12:00N 46°21' E 030°39'0 0.4
2018-Apr-14 10:57N 46°20' E 030°39'5 5.3
2018-Apr-14 10:04N 46°17' E 030°44'1 5.0
2018-Apr-14 09:58N 46°17' E 030°44'0 0.1
2018-Apr-14 09:05N 46°17' E 030°44'0 0.1
2018-Apr-14 09:00N 46°17' E 030°44'0 0.0
2018-Apr-14 08:05N 46°16' E 030°44'0 0.0
2018-Apr-14 08:00N 46°16' E 030°44'0 0.0
2018-Apr-14 07:05N 46°16' E 030°44'0 0.2
2018-Apr-14 07:01N 46°17' E 030°44'0 0.0
2018-Apr-14 06:24N 46°16' E 030°44'0 0.0
2018-Apr-14 06:01N 46°16' E 030°44'0 0.0
2018-Apr-14 05:20N 46°17' E 030°44'0 0.0
2018-Apr-14 05:01N 46°17' E 030°44'0 0.0
2018-Apr-14 04:25N 46°17' E 030°44'0 0.0
2018-Apr-14 04:00N 46°17' E 030°44'0 0.0
2018-Apr-14 03:04N 46°17' E 030°44'0 0.0
2018-Apr-14 03:00N 46°17' E 030°44'0 0.0
2018-Apr-14 02:01N 46°17' E 030°44'0 0.0
2018-Apr-14 01:59N 46°17' E 030°44'0 0.0
2018-Apr-14 01:04N 46°17' E 030°44'0 0.0
2018-Apr-14 01:00N 46°17' E 030°44'0 0.0
2018-Apr-14 00:02N 46°17' E 030°44'0 0.0
2018-Apr-13 23:57N 46°17' E 030°44'0 0.0
2018-Apr-13 22:55N 46°17' E 030°44'0 0.0
2018-Apr-13 22:05N 46°17' E 030°44'0 0.1
2018-Apr-13 22:01N 46°17' E 030°44'0 0.0
2018-Apr-13 21:05N 46°17' E 030°44'0 0.1
2018-Apr-13 21:00N 46°17' E 030°44'0 0.0
2018-Apr-13 19:59N 46°17' E 030°44'1 1.5
2018-Apr-13 19:05N 46°16' E 030°46'110.9
2018-Apr-13 19:00N 46°15' E 030°46'2812.7
2018-Apr-13 16:46N 45°47' E 030°55'  
2018-Apr-11 08:08N 45°59' E 030°51'213.6
2018-Apr-11 08:01N 46°00' E 030°51'713.4
2018-Apr-11 07:30N 46°07' E 030°49'713.2
2018-Apr-11 06:57N 46°14' E 030°46'8 9.4
2018-Apr-11 06:08N 46°20' E 030°39'0 3.3
2018-Apr-11 05:59N 46°21' E 030°39'0 0.0
2018-Apr-11 05:19N 46°21' E 030°39'0 0.0
2018-Apr-11 04:59N 46°21' E 030°39'0 0.0
2018-Apr-11 04:30N 46°21' E 030°39'0 0.0
2018-Apr-11 04:00N 46°21' E 030°39'0 0.0
2018-Apr-11 01:55N 46°21' E 030°39'0 0.0
2018-Apr-11 01:30N 46°21' E 030°39'0 0.0
2018-Apr-11 00:56N 46°21' E 030°39'0 0.0
2018-Apr-10 23:58N 46°21' E 030°39'0 0.0
2018-Apr-10 22:58N 46°21' E 030°39'0 0.0
2018-Apr-10 21:59N 46°21' E 030°39'0 0.0
2018-Apr-10 20:52N 46°21' E 030°39'0 0.0
2018-Apr-10 19:55N 46°21' E 030°39'0 0.0
2018-Apr-10 17:56N 46°21' E 030°39'0 0.0
2018-Apr-10 16:57N 46°21' E 030°39'0 0.0
2018-Apr-10 15:59N 46°21' E 030°39'0 0.0
2018-Apr-10 14:59N 46°21' E 030°39'0 0.0
2018-Apr-10 13:59N 46°21' E 030°39'0 0.0
2018-Apr-10 12:59N 46°21' E 030°39'0 0.0
2018-Apr-10 11:56N 46°21' E 030°39'0 0.0
2018-Apr-10 10:59N 46°21' E 030°39'0 0.0
2018-Apr-10 10:30N 46°21' E 030°39'0 0.8
2018-Apr-10 09:59N 46°20' E 030°39'3 6.2
2018-Apr-10 09:30N 46°18' E 030°43'3 5.2
2018-Apr-10 08:59N 46°16' E 030°45'0 0.0
2018-Apr-10 08:30N 46°16' E 030°45'0 0.0
2018-Apr-10 07:59N 46°16' E 030°45'0 0.0
2018-Apr-10 07:30N 46°16' E 030°45'0 0.0
2018-Apr-10 06:59N 46°16' E 030°45'0 0.0
2018-Apr-10 06:30N 46°16' E 030°45'0 0.4
2018-Apr-10 05:59N 46°16' E 030°45'1110.6
2018-Apr-10 04:59N 46°06' E 030°50'713.0
2018-Apr-10 04:26N 45°59' E 030°52'613.0
2018-Apr-10 03:58N 45°53' E 030°54'1913.2
2018-Apr-10 02:30N 45°34' E 030°60'613.2
2018-Apr-10 02:00N 45°28' E 031°02'713.2
2018-Apr-10 01:30N 45°21' E 031°04'  

Dump ship's entire track history